createdAt,value
2022-10-20T00:00:35.658Z,11.70
2022-10-20T00:03:03.434Z,11.70
2022-10-20T00:05:31.263Z,11.80
2022-10-20T00:07:59.043Z,11.80
2022-10-20T00:10:26.854Z,11.80
2022-10-20T00:12:56.013Z,11.70
2022-10-20T00:15:23.782Z,11.50
2022-10-20T00:17:51.535Z,11.40
2022-10-20T00:20:19.682Z,11.50
2022-10-20T00:22:47.563Z,11.40
2022-10-20T00:25:16.430Z,11.40
2022-10-20T00:27:44.228Z,11.20
2022-10-20T00:30:13.620Z,11.30
2022-10-20T00:32:41.440Z,11.30
2022-10-20T00:35:10.251Z,11.30
2022-10-20T00:37:38.021Z,11.10
2022-10-20T00:40:06.574Z,10.90
2022-10-20T00:42:34.607Z,10.80
2022-10-20T00:45:03.030Z,10.90
2022-10-20T00:47:40.077Z,10.80
2022-10-20T00:50:11.868Z,10.80
2022-10-20T00:52:41.681Z,10.90
2022-10-20T00:55:11.574Z,10.90
2022-10-20T00:57:40.050Z,10.90
2022-10-20T01:00:08.924Z,10.90
2022-10-20T01:02:38.186Z,10.90
2022-10-20T01:05:07.381Z,10.90
2022-10-20T01:07:35.524Z,10.90
2022-10-20T01:10:05.340Z,10.90
2022-10-20T01:12:40.049Z,11.00
2022-10-20T01:15:16.435Z,11.00
2022-10-20T01:17:54.140Z,10.90
2022-10-20T01:20:39.898Z,10.90
2022-10-20T01:23:39.092Z,10.80
2022-10-20T01:26:39.238Z,10.60
2022-10-20T01:29:14.778Z,10.60
2022-10-20T01:31:48.190Z,10.60
2022-10-20T01:34:22.368Z,10.50
2022-10-20T01:36:56.668Z,10.50
2022-10-20T01:39:30.869Z,10.50
2022-10-20T01:42:02.520Z,10.50
2022-10-20T01:44:33.638Z,10.60
2022-10-20T01:47:02.244Z,10.60
2022-10-20T01:49:30.239Z,10.50
2022-10-20T01:51:58.224Z,10.50
2022-10-20T01:54:27.832Z,10.50
2022-10-20T01:57:13.813Z,10.40
2022-10-20T01:59:55.820Z,10.40
2022-10-20T02:02:38.582Z,10.50
2022-10-20T02:05:20.479Z,10.50
2022-10-20T02:07:48.369Z,10.40
2022-10-20T02:10:21.370Z,10.40
2022-10-20T02:12:53.947Z,10.40
2022-10-20T02:15:27.787Z,10.30
2022-10-20T02:18:01.190Z,10.20
2022-10-20T02:20:31.143Z,10.20
2022-10-20T02:22:59.679Z,10.20
2022-10-20T02:25:29.105Z,10.10
2022-10-20T02:30:27.646Z,10.00
2022-10-20T02:32:55.407Z,10.00
2022-10-20T02:35:27.721Z,10.10
2022-10-20T02:37:55.495Z,10.10
2022-10-20T02:40:23.348Z,10.10
2022-10-20T02:42:51.271Z,9.90
2022-10-20T02:45:19.154Z,9.80
2022-10-20T02:47:48.320Z,9.70
2022-10-20T02:50:17.090Z,9.70
2022-10-20T02:52:44.895Z,9.70
2022-10-20T02:55:12.923Z,9.50
2022-10-20T02:57:40.743Z,9.50
2022-10-20T03:00:09.802Z,9.40
2022-10-20T03:02:37.586Z,9.40
2022-10-20T03:05:07.472Z,9.30
2022-10-20T03:07:35.558Z,9.30
2022-10-20T03:10:03.639Z,9.20
2022-10-20T03:12:32.287Z,9.20
2022-10-20T03:15:00.207Z,9.20
2022-10-20T03:17:27.988Z,9.20
2022-10-20T03:19:55.748Z,9.30
2022-10-20T03:22:24.982Z,9.30
2022-10-20T03:24:52.859Z,9.40
2022-10-20T03:27:20.663Z,9.40
2022-10-20T03:29:48.424Z,9.40
2022-10-20T03:32:16.265Z,9.50
2022-10-20T03:34:44.066Z,9.40
2022-10-20T03:37:11.871Z,9.40
2022-10-20T03:39:41.097Z,9.30
2022-10-20T03:42:08.859Z,9.30
2022-10-20T03:44:36.629Z,9.30
2022-10-20T03:47:04.395Z,9.30
2022-10-20T03:49:33.887Z,9.30
2022-10-20T03:52:01.626Z,9.30
2022-10-20T03:54:29.407Z,9.30
2022-10-20T03:56:58.589Z,9.30
2022-10-20T03:59:29.514Z,9.20
2022-10-20T04:01:58.374Z,9.30
2022-10-20T04:04:26.306Z,9.30
2022-10-20T04:06:54.125Z,9.20
2022-10-20T04:09:21.931Z,9.20
2022-10-20T04:11:49.701Z,9.20
2022-10-20T04:14:18.920Z,9.10
2022-10-20T04:16:46.660Z,9.10
2022-10-20T04:19:14.620Z,9.10
2022-10-20T04:21:42.443Z,9.10
2022-10-20T04:24:10.288Z,9.00
2022-10-20T04:26:38.084Z,8.90
2022-10-20T04:29:05.908Z,8.90
2022-10-20T04:31:35.103Z,8.90
2022-10-20T04:34:02.936Z,8.90
2022-10-20T04:36:30.733Z,8.90
2022-10-20T04:38:58.530Z,8.90
2022-10-20T04:41:26.475Z,9.00
2022-10-20T04:43:54.649Z,9.00
2022-10-20T04:46:22.446Z,9.10
2022-10-20T04:48:51.633Z,9.10
2022-10-20T04:51:19.686Z,9.10
2022-10-20T04:53:48.212Z,9.10
2022-10-20T04:56:19.364Z,9.20
2022-10-20T04:58:49.056Z,9.20
2022-10-20T05:01:17.624Z,9.20
2022-10-20T05:03:45.507Z,9.20
2022-10-20T05:06:18.477Z,9.30
2022-10-20T05:08:48.319Z,9.20
2022-10-20T05:11:17.297Z,9.20
2022-10-20T05:13:45.654Z,9.30
2022-10-20T05:16:13.841Z,9.30
2022-10-20T05:18:42.472Z,9.20
2022-10-20T05:21:11.987Z,9.30
2022-10-20T05:23:41.792Z,9.30
2022-10-20T05:26:13.026Z,9.40
2022-10-20T05:28:43.600Z,9.40
2022-10-20T05:31:11.469Z,9.50
2022-10-20T05:33:39.699Z,9.40
2022-10-20T05:36:11.515Z,9.40
2022-10-20T05:38:41.470Z,9.30
2022-10-20T05:41:10.947Z,9.40
2022-10-20T05:43:39.255Z,9.30
2022-10-20T05:46:07.695Z,9.30
2022-10-20T05:48:39.382Z,9.30
2022-10-20T05:51:14.587Z,9.40
2022-10-20T05:53:47.478Z,9.40
2022-10-20T05:56:17.814Z,9.30
2022-10-20T05:58:47.269Z,9.40
2022-10-20T06:01:18.979Z,9.30
2022-10-20T06:03:49.007Z,9.30
2022-10-20T06:06:17.009Z,9.30
2022-10-20T06:08:46.438Z,9.30
2022-10-20T06:11:16.112Z,9.30
2022-10-20T06:13:46.053Z,9.20
2022-10-20T06:16:18.316Z,9.10
2022-10-20T06:18:46.067Z,9.20
2022-10-20T06:21:15.879Z,9.20
2022-10-20T06:23:43.742Z,9.20
2022-10-20T06:26:14.736Z,9.20
2022-10-20T06:28:43.461Z,9.20
2022-10-20T06:31:12.704Z,9.10
2022-10-20T06:33:41.007Z,9.10
2022-10-20T06:36:09.506Z,9.20
2022-10-20T06:38:38.433Z,9.20
2022-10-20T06:41:07.408Z,9.20
2022-10-20T06:43:36.679Z,9.30
2022-10-20T06:46:06.137Z,9.10
2022-10-20T06:48:34.579Z,9.30
2022-10-20T06:51:05.327Z,9.40
2022-10-20T06:53:36.468Z,9.50
2022-10-20T06:56:06.486Z,9.60
2022-10-20T06:58:37.086Z,9.50
2022-10-20T07:01:10.192Z,9.50
2022-10-20T07:03:39.840Z,9.60
2022-10-20T07:06:08.956Z,9.50
2022-10-20T07:08:37.642Z,9.50
2022-10-20T07:11:07.790Z,9.40
2022-10-20T07:13:38.680Z,9.60
2022-10-20T07:16:08.028Z,9.60
2022-10-20T07:18:36.896Z,9.70
2022-10-20T07:21:06.354Z,9.70
2022-10-20T07:23:34.857Z,9.80
2022-10-20T07:26:03.196Z,9.70
2022-10-20T07:28:31.108Z,9.70
2022-10-20T07:31:04.274Z,9.80
2022-10-20T07:33:32.167Z,9.90
2022-10-20T07:35:59.968Z,9.90
2022-10-20T07:38:28.041Z,10.00
2022-10-20T07:41:02.449Z,10.10
2022-10-20T07:43:30.244Z,10.20
2022-10-20T07:45:58.148Z,10.20
2022-10-20T07:48:27.495Z,10.10
2022-10-20T07:50:55.327Z,10.20
2022-10-20T07:53:23.105Z,10.20
2022-10-20T07:55:50.886Z,10.30
2022-10-20T07:58:18.718Z,10.40
2022-10-20T08:00:46.491Z,10.50
2022-10-20T08:03:14.343Z,10.50
2022-10-20T08:05:43.472Z,10.60
2022-10-20T08:08:11.358Z,10.70
2022-10-20T08:10:39.261Z,10.80
2022-10-20T08:13:07.248Z,10.90
2022-10-20T08:15:39.290Z,10.90
2022-10-20T08:18:07.418Z,11.10
2022-10-20T08:20:38.015Z,10.90
2022-10-20T08:23:07.400Z,11.10
2022-10-20T08:25:35.214Z,11.10
2022-10-20T08:28:03.099Z,11.20
2022-10-20T08:30:31.002Z,11.30
2022-10-20T08:32:59.087Z,11.40
2022-10-20T08:35:27.502Z,11.30
2022-10-20T08:37:55.457Z,11.50
2022-10-20T08:40:26.512Z,11.50
2022-10-20T08:42:55.506Z,11.80
2022-10-20T08:45:25.627Z,11.80
2022-10-20T08:47:55.081Z,11.60
2022-10-20T08:50:23.716Z,11.80
2022-10-20T08:52:55.378Z,11.80
2022-10-20T08:55:29.152Z,11.90
2022-10-20T08:58:01.436Z,11.70
2022-10-20T09:00:31.465Z,11.90
2022-10-20T09:03:10.858Z,12.00
2022-10-20T09:05:41.611Z,11.90
2022-10-20T09:08:09.708Z,12.00
2022-10-20T09:10:42.187Z,12.20
2022-10-20T09:13:18.554Z,12.10
2022-10-20T09:15:46.368Z,12.20
2022-10-20T09:18:16.487Z,12.50
2022-10-20T09:20:49.253Z,12.60
2022-10-20T09:23:39.527Z,12.70
2022-10-20T09:26:24.854Z,12.70
2022-10-20T09:29:12.912Z,12.40
2022-10-20T09:31:43.723Z,12.40
2022-10-20T09:34:22.564Z,12.40
2022-10-20T09:36:52.012Z,12.50
2022-10-20T09:39:22.140Z,12.40
2022-10-20T09:42:00.203Z,12.50
2022-10-20T09:44:28.055Z,12.50
2022-10-20T09:46:56.165Z,12.60
2022-10-20T09:49:26.911Z,12.70
2022-10-20T09:51:54.948Z,12.70
2022-10-20T09:54:25.501Z,13.00
2022-10-20T09:57:04.160Z,13.10
2022-10-20T09:59:34.928Z,13.10
2022-10-20T10:02:04.942Z,13.30
2022-10-20T10:04:35.044Z,13.40
2022-10-20T10:07:03.437Z,13.40
2022-10-20T10:09:34.558Z,13.40
2022-10-20T10:12:06.506Z,13.70
2022-10-20T10:14:37.410Z,13.90
2022-10-20T10:17:05.473Z,14.00
2022-10-20T10:19:35.096Z,13.90
2022-10-20T10:22:04.840Z,14.00
2022-10-20T10:24:43.052Z,14.20
2022-10-20T10:27:24.388Z,14.30
2022-10-20T10:29:52.494Z,14.20
2022-10-20T10:32:25.365Z,14.20
2022-10-20T10:35:18.547Z,14.30
2022-10-20T10:37:47.800Z,14.50
2022-10-20T10:40:18.707Z,14.60
2022-10-20T10:43:14.681Z,14.40
2022-10-20T10:45:46.830Z,14.40
2022-10-20T10:48:38.503Z,14.50
2022-10-20T10:51:11.363Z,14.50
2022-10-20T10:53:53.657Z,14.60
2022-10-20T10:56:30.507Z,14.60
2022-10-20T10:59:06.599Z,14.60
2022-10-20T11:02:05.089Z,14.40
2022-10-20T11:05:04.503Z,14.40
2022-10-20T11:07:40.505Z,14.50
2022-10-20T11:10:19.267Z,14.50
2022-10-20T11:13:00.599Z,14.70
2022-10-20T11:15:53.827Z,14.90
2022-10-20T11:18:38.703Z,14.70
2022-10-20T11:21:17.450Z,14.80
2022-10-20T11:24:06.162Z,14.80
2022-10-20T11:26:35.208Z,14.80
2022-10-20T11:29:07.249Z,14.90
2022-10-20T11:31:42.951Z,14.90
2022-10-20T11:34:15.310Z,14.80
2022-10-20T11:36:48.320Z,15.00
2022-10-20T11:39:24.441Z,14.90
2022-10-20T11:41:56.910Z,15.00
2022-10-20T11:44:28.616Z,15.00
2022-10-20T11:47:02.674Z,15.20
2022-10-20T11:49:33.637Z,15.30
2022-10-20T11:52:35.277Z,15.40
2022-10-20T11:55:41.320Z,15.00
2022-10-20T11:58:28.516Z,15.30
2022-10-20T12:01:03.920Z,15.40
2022-10-20T12:04:01.513Z,15.60
2022-10-20T12:06:44.524Z,15.90
2022-10-20T12:09:39.223Z,16.00
2022-10-20T12:12:11.875Z,16.20
2022-10-20T12:14:42.943Z,16.40
2022-10-20T12:17:20.512Z,16.40
2022-10-20T12:19:52.675Z,16.50
2022-10-20T12:22:43.312Z,16.40
2022-10-20T12:25:34.982Z,16.50
2022-10-20T12:28:34.318Z,16.50
2022-10-20T12:31:03.522Z,16.70
2022-10-20T12:34:00.536Z,16.70
2022-10-20T12:36:33.996Z,16.50
2022-10-20T12:39:30.097Z,16.70
2022-10-20T12:42:02.430Z,16.70
2022-10-20T12:44:33.200Z,16.70
2022-10-20T12:47:06.685Z,16.70
2022-10-20T12:49:37.660Z,16.60
2022-10-20T12:52:08.660Z,16.60
2022-10-20T12:54:39.661Z,16.60
2022-10-20T12:57:27.178Z,16.70
2022-10-20T12:59:55.110Z,16.80
2022-10-20T13:02:52.697Z,16.80
2022-10-20T13:05:49.965Z,16.80
2022-10-20T13:08:37.748Z,17.00
2022-10-20T13:11:34.734Z,16.90
2022-10-20T13:14:15.054Z,17.00
2022-10-20T13:16:47.554Z,17.00
2022-10-20T13:19:20.216Z,17.10
2022-10-20T13:21:49.759Z,17.10
2022-10-20T13:24:22.291Z,17.20
2022-10-20T13:26:54.282Z,17.30
2022-10-20T13:29:27.987Z,17.10
2022-10-20T13:34:45.516Z,17.30
2022-10-20T13:37:38.710Z,17.40
2022-10-20T13:40:23.618Z,17.20
2022-10-20T13:43:09.168Z,17.20
2022-10-20T13:45:53.695Z,17.30
2022-10-20T13:48:34.227Z,17.30
2022-10-20T13:51:06.538Z,17.20
2022-10-20T13:53:38.638Z,17.20
2022-10-20T13:56:19.862Z,17.20
2022-10-20T13:59:04.545Z,17.20
2022-10-20T14:01:35.103Z,17.40
2022-10-20T14:04:03.109Z,17.30
2022-10-20T14:06:36.557Z,17.30
2022-10-20T14:09:13.607Z,17.30
2022-10-20T14:11:43.749Z,17.30
2022-10-20T14:14:15.608Z,17.20
2022-10-20T14:16:51.356Z,17.20
2022-10-20T14:19:22.076Z,17.10
2022-10-20T14:21:51.829Z,17.10
2022-10-20T14:24:28.016Z,16.80
2022-10-20T14:29:29.860Z,16.80
2022-10-20T14:31:58.451Z,16.60
2022-10-20T14:34:29.262Z,16.50
2022-10-20T14:36:58.540Z,16.50
2022-10-20T14:39:35.364Z,16.60
2022-10-20T14:42:06.485Z,16.60
2022-10-20T14:44:36.153Z,16.50
2022-10-20T14:47:06.081Z,16.50
2022-10-20T14:49:37.974Z,16.70
2022-10-20T14:52:09.080Z,16.70
2022-10-20T14:54:39.685Z,16.60
2022-10-20T14:57:44.415Z,16.70
2022-10-20T15:00:33.332Z,16.60
2022-10-20T15:03:06.626Z,16.80
2022-10-20T15:05:39.766Z,16.70
2022-10-20T15:08:22.039Z,16.70
2022-10-20T15:10:49.985Z,16.60
2022-10-20T15:13:27.775Z,16.70
2022-10-20T15:15:56.702Z,16.60
2022-10-20T15:18:25.004Z,16.60
2022-10-20T15:20:53.230Z,16.60
2022-10-20T15:23:22.579Z,16.70
2022-10-20T15:25:53.232Z,16.70
2022-10-20T15:28:35.795Z,16.70
2022-10-20T15:31:05.285Z,16.60
2022-10-20T15:33:33.059Z,16.60
2022-10-20T15:36:01.858Z,16.60
2022-10-20T15:38:29.841Z,16.60
2022-10-20T15:40:57.658Z,16.50
2022-10-20T15:43:26.889Z,16.50
2022-10-20T15:45:56.292Z,16.60
2022-10-20T15:48:25.988Z,16.50
2022-10-20T15:50:54.280Z,16.50
2022-10-20T15:53:22.154Z,16.60
2022-10-20T15:55:49.944Z,16.50
2022-10-20T15:58:18.578Z,16.40
2022-10-20T16:00:47.779Z,16.40
2022-10-20T16:03:18.096Z,16.40
2022-10-20T16:05:46.372Z,16.50
2022-10-20T16:10:43.653Z,16.60
2022-10-20T16:13:12.520Z,16.40
2022-10-20T16:15:40.319Z,16.50
2022-10-20T16:18:10.075Z,16.60
2022-10-20T16:20:38.110Z,16.50
2022-10-20T16:23:05.945Z,16.50
2022-10-20T16:25:33.762Z,16.40
2022-10-20T16:28:02.270Z,16.50
2022-10-20T16:30:30.057Z,16.30
2022-10-20T16:32:57.863Z,16.50
2022-10-20T16:35:27.053Z,16.60
2022-10-20T16:37:54.907Z,16.70
2022-10-20T16:40:22.786Z,16.70
2022-10-20T16:42:50.556Z,16.70
2022-10-20T16:45:18.419Z,16.80
2022-10-20T16:47:46.245Z,16.70
2022-10-20T16:50:14.028Z,16.70
2022-10-20T16:52:43.183Z,16.80
2022-10-20T16:55:11.064Z,16.70
2022-10-20T16:57:40.121Z,16.60
2022-10-20T17:00:09.914Z,16.40
2022-10-20T17:02:38.384Z,16.40
2022-10-20T17:05:09.286Z,16.40
2022-10-20T17:07:38.139Z,16.40
2022-10-20T17:10:08.762Z,16.40
2022-10-20T17:12:36.505Z,16.30
2022-10-20T17:15:04.857Z,16.40
2022-10-20T17:17:32.677Z,16.30
2022-10-20T17:20:00.440Z,16.50
2022-10-20T17:22:28.240Z,16.70
2022-10-20T17:24:56.043Z,16.60
2022-10-20T17:27:25.275Z,16.50
2022-10-20T17:29:53.362Z,16.50
2022-10-20T17:32:21.144Z,16.50
2022-10-20T17:34:48.951Z,16.50
2022-10-20T17:37:16.705Z,16.50
2022-10-20T17:39:44.493Z,16.40
2022-10-20T17:42:12.288Z,16.20
2022-10-20T17:44:41.433Z,16.20
2022-10-20T17:47:09.226Z,16.20
2022-10-20T17:49:37.011Z,16.30
2022-10-20T17:52:04.905Z,16.30
2022-10-20T17:54:33.800Z,16.10
2022-10-20T17:57:01.564Z,16.10
2022-10-20T17:59:34.711Z,16.10
2022-10-20T18:02:11.855Z,16.20
2022-10-20T18:04:40.043Z,16.20
2022-10-20T18:07:07.824Z,16.00
2022-10-20T18:09:35.591Z,15.80
2022-10-20T18:12:03.597Z,15.70
2022-10-20T18:14:31.364Z,15.80
2022-10-20T18:16:59.172Z,15.90
2022-10-20T18:19:28.468Z,16.00
2022-10-20T18:21:56.282Z,16.10
2022-10-20T18:24:24.206Z,16.20
2022-10-20T18:26:51.995Z,16.20
2022-10-20T18:29:19.775Z,16.20
2022-10-20T18:31:48.593Z,16.20
2022-10-20T18:34:20.510Z,16.10
2022-10-20T18:36:50.729Z,16.10
2022-10-20T18:39:19.112Z,16.10
2022-10-20T18:41:47.117Z,16.20
2022-10-20T18:44:16.996Z,16.20
2022-10-20T18:46:46.211Z,16.10
2022-10-20T18:49:16.388Z,16.10
2022-10-20T18:51:46.237Z,16.00
2022-10-20T18:54:16.021Z,15.90
2022-10-20T18:56:44.083Z,16.00
2022-10-20T18:59:16.349Z,15.80
2022-10-20T19:01:44.617Z,15.90
2022-10-20T19:04:13.365Z,15.70
2022-10-20T19:06:43.567Z,15.80
2022-10-20T19:09:14.377Z,15.80
2022-10-20T19:11:44.935Z,15.80
2022-10-20T19:14:13.313Z,15.70
2022-10-20T19:16:43.043Z,15.80
2022-10-20T19:19:12.019Z,15.80
2022-10-20T19:21:40.145Z,15.90
2022-10-20T19:24:09.945Z,15.80
2022-10-20T19:26:40.815Z,15.40
2022-10-20T19:29:11.871Z,15.50
2022-10-20T19:31:42.193Z,15.60
2022-10-20T19:34:12.657Z,15.50
2022-10-20T19:36:41.997Z,15.50
2022-10-20T19:39:12.157Z,15.50
2022-10-20T19:41:41.285Z,15.60
2022-10-20T19:44:13.054Z,15.70
2022-10-20T19:46:41.288Z,15.60
2022-10-20T19:49:09.200Z,15.30
2022-10-20T19:51:37.287Z,15.50
2022-10-20T19:54:05.638Z,15.40
2022-10-20T19:56:33.887Z,15.60
2022-10-20T19:59:02.510Z,15.70
2022-10-20T20:01:32.148Z,15.60
2022-10-20T20:04:00.301Z,15.80
2022-10-20T20:06:28.855Z,15.90
2022-10-20T20:08:59.649Z,15.90
2022-10-20T20:11:30.722Z,16.10
2022-10-20T20:14:00.757Z,16.10
2022-10-20T20:16:29.522Z,16.10
2022-10-20T20:18:59.027Z,16.10
2022-10-20T20:21:27.369Z,16.20
2022-10-20T20:24:00.759Z,16.20
2022-10-20T20:26:29.905Z,16.20
2022-10-20T20:28:58.535Z,16.10
2022-10-20T20:31:27.422Z,16.00
2022-10-20T20:33:56.612Z,16.10
2022-10-20T20:36:27.750Z,16.10
2022-10-20T20:38:57.361Z,16.00
2022-10-20T20:41:26.774Z,16.10
2022-10-20T20:43:55.169Z,16.00
2022-10-20T20:46:24.744Z,15.90
2022-10-20T20:48:52.723Z,15.90
2022-10-20T20:51:20.514Z,15.80
2022-10-20T20:53:49.744Z,15.90
2022-10-20T20:56:21.814Z,15.80
2022-10-20T20:58:54.969Z,15.80
2022-10-20T21:01:25.267Z,15.80
2022-10-20T21:03:54.610Z,15.50
2022-10-20T21:06:25.781Z,15.80
2022-10-20T21:09:03.334Z,15.80
2022-10-20T21:11:31.175Z,15.80
2022-10-20T21:13:59.828Z,16.00
2022-10-20T21:16:29.091Z,15.90
2022-10-20T21:18:58.565Z,15.70
2022-10-20T21:21:28.233Z,15.80
2022-10-20T21:23:57.019Z,15.80
2022-10-20T21:26:27.340Z,15.80
2022-10-20T21:28:55.859Z,15.80
2022-10-20T21:31:26.013Z,15.90
2022-10-20T21:33:55.507Z,15.90
2022-10-20T21:36:24.610Z,15.70
2022-10-20T21:38:53.287Z,15.70
2022-10-20T21:41:22.578Z,15.80
2022-10-20T21:43:53.631Z,15.70
2022-10-20T21:46:23.426Z,15.70
2022-10-20T21:48:53.110Z,15.90
2022-10-20T21:51:23.297Z,15.90
2022-10-20T21:53:54.930Z,15.80
2022-10-20T21:56:22.680Z,15.80
2022-10-20T21:58:51.839Z,15.80
2022-10-20T22:01:22.681Z,15.90
2022-10-20T22:03:52.149Z,15.90
2022-10-20T22:06:21.566Z,16.00
2022-10-20T22:08:51.277Z,16.00
2022-10-20T22:11:21.210Z,16.10
2022-10-20T22:13:51.096Z,16.10
2022-10-20T22:16:21.717Z,16.00
2022-10-20T22:18:49.696Z,16.10
2022-10-20T22:21:18.991Z,16.00
2022-10-20T22:23:47.519Z,16.10
2022-10-20T22:26:15.324Z,16.20
2022-10-20T22:28:43.121Z,16.30
2022-10-20T22:31:14.619Z,16.40
2022-10-20T22:33:45.149Z,16.50
2022-10-20T22:36:12.934Z,16.50
2022-10-20T22:38:40.735Z,16.50
2022-10-20T22:41:08.771Z,16.60
2022-10-20T22:43:36.509Z,16.60
2022-10-20T22:46:04.317Z,16.60
2022-10-20T22:48:33.503Z,16.50
2022-10-20T22:51:01.325Z,16.40
2022-10-20T22:53:29.096Z,16.20
2022-10-20T22:55:58.385Z,16.30
2022-10-20T22:58:26.153Z,16.30
2022-10-20T23:00:53.988Z,16.20
2022-10-20T23:03:21.748Z,16.40
2022-10-20T23:05:50.927Z,16.30
2022-10-20T23:08:18.731Z,16.40
2022-10-20T23:10:46.493Z,16.30
2022-10-20T23:13:14.290Z,16.30
2022-10-20T23:15:42.029Z,16.40
2022-10-20T23:18:09.809Z,16.40
2022-10-20T23:20:37.555Z,16.50
2022-10-20T23:23:06.791Z,16.50
2022-10-20T23:28:07.263Z,16.60
2022-10-20T23:30:35.109Z,16.70
2022-10-20T23:33:03.068Z,16.60
2022-10-20T23:35:30.843Z,16.70
2022-10-20T23:37:58.675Z,16.70
2022-10-20T23:40:28.019Z,16.70
2022-10-20T23:42:55.996Z,16.70
2022-10-20T23:45:23.765Z,16.70
2022-10-20T23:47:51.569Z,16.60
2022-10-20T23:50:21.599Z,16.60
2022-10-20T23:52:49.357Z,16.70
2022-10-20T23:55:17.329Z,16.70
2022-10-20T23:57:46.491Z,16.80
